^^
Meteo Knjazevac Station Historical Data
Daily Summary for September 21, 2021 Units:  English    Metric   Both
Daily Weekly Monthly Yearly Custom
  High: Low: Average:
Temperature: 49.6 °F 35.4 °F 42 °F
Dew Point: 40.3 °F 32.8 °F 36.4 °F
Humidity: 91% 68% 81%
Wind Speed: 7mph 0mph 2.6mph
Wind Gust: 15mph - -
Wind- - SSE
Pressure: 30.27 in 30.17 in -
Precipitation: 0.00 in    
Historical Graphs
 
 
Tabular Data for September 21, 2021
Time Temperature Dew Point Pressure Wind Wind Speed Wind Gust Humidity Rainfall Rate (Hourly) solar Conditions
00:00 37 °F 34.4 °F 30.27 in Calm   5 mph 90% 0.00 in 0 W/m2
00:10 36.7 °F 34.1 °F 30.26 in NNW 1 mph 3 mph 90% 0.00 in 0 W/m2
00:20 37 °F 34.4 °F 30.26 in South 1 mph 4 mph 90% 0.00 in 0 W/m2
00:30 36.9 °F 34.2 °F 30.26 in SW 1 mph 3 mph 90% 0.00 in 0 W/m2
00:40 36.9 °F 34.2 °F 30.26 in ENE 3 mph 6 mph 90% 0.00 in 0 W/m2
00:50 37.2 °F 34.6 °F 30.26 in ESE 3 mph 6 mph 90% 0.00 in 0 W/m2
01:00 36.5 °F 33.8 °F 30.25 in NNE 3 mph 8 mph 90% 0.00 in 0 W/m2
01:10 36.9 °F 34.2 °F 30.25 in East 1 mph 8 mph 90% 0.00 in 0 W/m2
01:20 36.7 °F 34 °F 30.25 in ENE 1 mph 5 mph 90% 0.00 in 0 W/m2
01:30 36.5 °F 33.8 °F 30.25 in SE 1 mph 4 mph 90% 0.00 in 0 W/m2
01:40 36.5 °F 33.8 °F 30.25 in SSW 1 mph 7 mph 90% 0.00 in 0 W/m2
01:50 36.3 °F 33.7 °F 30.25 in SW 1 mph 7 mph 90% 0.00 in 0 W/m2
02:00 36.3 °F 33.7 °F 30.25 in ESE 1 mph 7 mph 90% 0.00 in 0 W/m2
02:10 36.3 °F 33.7 °F 30.25 in NNE 1 mph 4 mph 90% 0.00 in 0 W/m2
02:20 36.3 °F 33.7 °F 30.25 in West 1 mph 3 mph 90% 0.00 in 0 W/m2
02:30 36.1 °F 33.5 °F 30.25 in Calm   3 mph 90% 0.00 in 0 W/m2
02:40 36.1 °F 33.8 °F 30.24 in SE 1 mph 6 mph 91% 0.00 in 0 W/m2
02:50 36.1 °F 33.5 °F 30.24 in SE 1 mph 5 mph 90% 0.00 in 0 W/m2
03:00 35.8 °F 33.1 °F 30.24 in NNE 3 mph 6 mph 90% 0.00 in 0 W/m2
03:10 35.4 °F 32.8 °F 30.23 in North 2 mph 4 mph 90% 0.00 in 0 W/m2
03:20 35.4 °F 33.1 °F 30.24 in North 1 mph 4 mph 91% 0.00 in 0 W/m2
03:30 35.8 °F 33.4 °F 30.23 in NE 3 mph 6 mph 91% 0.00 in 0 W/m2
03:40 36 °F 33.6 °F 30.23 in East 3 mph 7 mph 91% 0.00 in 0 W/m2
03:50 36 °F 33.3 °F 30.23 in SE 1 mph 8 mph 90% 0.00 in 0 W/m2
04:00 36.2 °F 33.5 °F 30.23 in Calm   10 mph 90% 0.00 in 0 W/m2
04:10 36.1 °F 33.8 °F 30.23 in SSE 1 mph 7 mph 91% 0.00 in 0 W/m2
04:20 36 °F 33.6 °F 30.23 in Calm   5 mph 91% 0.00 in 0 W/m2
04:30 36.5 °F 34.1 °F 30.23 in SE 3 mph 15 mph 91% 0.00 in 0 W/m2
04:40 36.7 °F 34 °F 30.23 in SSE 5 mph 12 mph 90% 0.00 in 0 W/m2
04:50 36.9 °F 34.2 °F 30.23 in SE 1 mph 9 mph 90% 0.00 in 0 W/m2
05:00 36.9 °F 34.2 °F 30.23 in SSE 5 mph 12 mph 90% 0.00 in 0 W/m2
05:10 37.4 °F 34.5 °F 30.23 in SE 2 mph 9 mph 89% 0.00 in 0 W/m2
05:20 37 °F 34.1 °F 30.23 in SSE 2 mph 7 mph 89% 0.00 in 0 W/m2
05:30 36.5 °F 33.8 °F 30.23 in SSE 1 mph 8 mph 90% 0.00 in 0 W/m2
05:40 37.2 °F 34.6 °F 30.23 in SE 7 mph 12 mph 90% 0.00 in 0 W/m2
05:50 37.6 °F 34.6 °F 30.23 in SSE 1 mph 12 mph 89% 0.00 in 0 W/m2
06:00 37.4 °F 34.5 °F 30.24 in SW 2 mph 6 mph 89% 0.00 in 0 W/m2
06:10 37.2 °F 34.3 °F 30.24 in SW 1 mph 5 mph 89% 0.00 in 0 W/m2
06:20 37.4 °F 34.5 °F 30.24 in SSW 2 mph 7 mph 89% 0.00 in 0 W/m2
06:30 37.8 °F 34.5 °F 30.24 in South 3 mph 7 mph 88% 0.00 in 0 W/m2
06:40 37.8 °F 34.5 °F 30.24 in South 1 mph 7 mph 88% 0.00 in 0 W/m2
06:50 37.4 °F 34.2 °F 30.24 in SSE 3 mph 6 mph 88% 0.00 in 0 W/m2
07:00 37.6 °F 34.4 °F 30.24 in South 3 mph 8 mph 88% 0.00 in 2 W/m2
07:10 37.9 °F 34.7 °F 30.24 in SSE 2 mph 8 mph 88% 0.00 in 3 W/m2
07:20 38.1 °F 34.9 °F 30.24 in South 2 mph 6 mph 88% 0.00 in 13 W/m2
07:30 37.4 °F 34.2 °F 30.24 in SSW 3 mph 7 mph 88% 0.00 in 23 W/m2
07:40 37.2 °F 34 °F 30.24 in SW 1 mph 6 mph 88% 0.00 in 35 W/m2
07:50 37 °F 34.1 °F 30.24 in SW 1 mph 5 mph 89% 0.00 in 47 W/m2
08:00 37.2 °F 34.3 °F 30.24 in South 3 mph 8 mph 89% 0.00 in 59 W/m2
08:10 37.8 °F 34.5 °F 30.24 in South 3 mph 8 mph 88% 0.00 in 71 W/m2
08:20 38.1 °F 34.9 °F 30.24 in South 3 mph 8 mph 88% 0.00 in 85 W/m2
08:30 38.7 °F 34.8 °F 30.24 in SSE 3 mph 7 mph 86% 0.00 in 100 W/m2
08:40 39 °F 35.2 °F 30.24 in SSE 2 mph 7 mph 86% 0.00 in 117 W/m2
08:50 39.4 °F 35.2 °F 30.24 in SSE 5 mph 10 mph 85% 0.00 in 136 W/m2
09:00 39.7 °F 35.6 °F 30.24 in SSW 3 mph 7 mph 85% 0.00 in 149 W/m2
09:10 40.1 °F 35.7 °F 30.24 in SW 2 mph 7 mph 84% 0.00 in 163 W/m2
09:20 40.5 °F 36 °F 30.24 in WSW 2 mph 6 mph 84% 0.00 in 181 W/m2
09:30 41 °F 36.3 °F 30.24 in WSW 2 mph 7 mph 83% 0.00 in 201 W/m2
09:40 41.6 °F 36.2 °F 30.24 in SW 3 mph 8 mph 81% 0.00 in 217 W/m2
09:50 42.3 °F 36.5 °F 30.24 in SSW 3 mph 8 mph 80% 0.00 in 233 W/m2
10:00 42.8 °F 37.1 °F 30.25 in Calm   6 mph 80% 0.00 in 238 W/m2
10:10 43.3 °F 37.3 °F 30.24 in SSW 1 mph 5 mph 79% 0.00 in 251 W/m2
10:20 43.7 °F 37.3 °F 30.24 in SSE 3 mph 11 mph 78% 0.00 in 252 W/m2
10:30 44.1 °F 37.6 °F 30.23 in SSE 5 mph 13 mph 78% 0.00 in 245 W/m2
10:40 44.2 °F 37.5 °F 30.23 in SE 5 mph 12 mph 77% 0.00 in 248 W/m2
10:50 44.8 °F 38 °F 30.23 in SE 5 mph 12 mph 77% 0.00 in 250 W/m2
11:00 45.1 °F 38.4 °F 30.23 in SSE 2 mph 9 mph 77% 0.00 in 270 W/m2
11:10 45.7 °F 38.2 °F 30.22 in SE 5 mph 14 mph 75% 0.00 in 308 W/m2
11:20 46 °F 38.2 °F 30.22 in SSE 5 mph 13 mph 74% 0.00 in 308 W/m2
11:30 46.3 °F 38.4 °F 30.22 in SE 6 mph 11 mph 74% 0.00 in 287 W/m2
11:40 46.6 °F 38.7 °F 30.21 in SE 5 mph 11 mph 74% 0.00 in 301 W/m2
11:50 46.9 °F 39.1 °F 30.21 in SE 6 mph 12 mph 74% 0.00 in 292 W/m2
12:00 47.1 °F 38.9 °F 30.21 in SE 3 mph 14 mph 73% 0.00 in 288 W/m2
12:10 47.3 °F 39.1 °F 30.21 in SE 7 mph 13 mph 73% 0.00 in 322 W/m2
12:20 47.5 °F 39.3 °F 30.20 in SE 5 mph 12 mph 73% 0.00 in 309 W/m2
12:30 47.5 °F 38.9 °F 30.20 in SE 5 mph 12 mph 72% 0.00 in 289 W/m2
12:40 47.7 °F 39.4 °F 30.19 in SSE 2 mph 12 mph 73% 0.00 in 301 W/m2
12:50 48.1 °F 39.5 °F 30.19 in SE 3 mph 9 mph 72% 0.00 in 294 W/m2
13:00 48.6 °F 39.9 °F 30.19 in SSE 3 mph 8 mph 72% 0.00 in 317 W/m2
13:10 48.7 °F 40.1 °F 30.19 in SSE 5 mph 12 mph 72% 0.00 in 299 W/m2
13:20 48.7 °F 39.4 °F 30.19 in SSE 2 mph 10 mph 70% 0.00 in 248 W/m2
13:30 48.9 °F 39.6 °F 30.18 in South 2 mph 6 mph 70% 0.00 in 227 W/m2
13:40 49 °F 40.3 °F 30.18 in SW 2 mph 5 mph 72% 0.00 in 236 W/m2
13:50 49.3 °F 39.9 °F 30.18 in SSW 2 mph 9 mph 70% 0.00 in 252 W/m2
14:00 49.3 °F 39.9 °F 30.18 in SSE 5 mph 11 mph 70% 0.00 in 250 W/m2
14:10 49.3 °F 39.6 °F 30.18 in SSE 6 mph 12 mph 69% 0.00 in 223 W/m2
14:20 49.5 °F 39.7 °F 30.18 in SSE 5 mph 12 mph 69% 0.00 in 201 W/m2
14:30 49.5 °F 39.7 °F 30.18 in SE 6 mph 12 mph 69% 0.00 in 192 W/m2
14:40 49.6 °F 39.9 °F 30.17 in SE 3 mph 12 mph 69% 0.00 in 171 W/m2
14:50 49.6 °F 39.9 °F 30.17 in SE 6 mph 13 mph 69% 0.00 in 151 W/m2
15:00 49.6 °F 39.5 °F 30.17 in SE 6 mph 12 mph 68% 0.00 in 130 W/m2
15:10 49.5 °F 39.4 °F 30.17 in SE 6 mph 14 mph 68% 0.00 in 109 W/m2
15:20 49.3 °F 39.5 °F 30.17 in SE 6 mph 12 mph 69% 0.00 in 88 W/m2
15:30 49.3 °F 39.5 °F 30.17 in SSE 2 mph 9 mph 69% 0.00 in 68 W/m2
15:40 49.1 °F 39.4 °F 30.17 in SW 2 mph 6 mph 69% 0.00 in 49 W/m2
15:50 48.9 °F 39.2 °F 30.18 in SSW 2 mph 6 mph 69% 0.00 in 31 W/m2
16:00 48.7 °F 39.4 °F 30.18 in SW 1 mph 6 mph 70% 0.00 in 14 W/m2
16:10 48.4 °F 39 °F 30.18 in SSW 2 mph 6 mph 70% 0.00 in 16 W/m2
16:20 47.8 °F 38.5 °F 30.18 in Calm   4 mph 70% 0.00 in 8 W/m2
16:30 47.3 °F 38.7 °F 30.18 in SW 1 mph 3 mph 72% 0.00 in 0 W/m2
16:40 46.8 °F 38.2 °F 30.19 in SW 2 mph 6 mph 72% 0.00 in 0 W/m2
16:50 46.4 °F 38.2 °F 30.19 in SSW 3 mph 7 mph 73% 0.00 in 0 W/m2
17:00 46.6 °F 38 °F 30.19 in South 2 mph 15 mph 72% 0.00 in 0 W/m2
17:10 46.2 °F 38 °F 30.19 in SE 3 mph 12 mph 73% 0.00 in 0 W/m2
17:20 46 °F 37.9 °F 30.19 in South 2 mph 6 mph 73% 0.00 in 0 W/m2
17:30 45.1 °F 37.3 °F 30.19 in SSW 1 mph 5 mph 74% 0.00 in 0 W/m2
17:40 44.6 °F 37.2 °F 30.19 in SSE 5 mph 9 mph 75% 0.00 in 0 W/m2
17:50 44.8 °F 37.3 °F 30.19 in SSE 3 mph 10 mph 75% 0.00 in 0 W/m2
18:00 44.8 °F 37.3 °F 30.19 in SSE 3 mph 7 mph 75% 0.00 in 0 W/m2
18:10 44.5 °F 37.1 °F 30.19 in South 1 mph 8 mph 75% 0.00 in 0 W/m2
18:20 43.9 °F 37.1 °F 30.19 in SSW 2 mph 6 mph 77% 0.00 in 0 W/m2
18:30 43.5 °F 37.1 °F 30.19 in South 2 mph 5 mph 78% 0.00 in 0 W/m2
18:40 43.5 °F 37.1 °F 30.19 in South 2 mph 7 mph 78% 0.00 in 0 W/m2
18:50 43.3 °F 36.9 °F 30.19 in SSE 3 mph 8 mph 78% 0.00 in 0 W/m2
19:00 43.7 °F 37.6 °F 30.19 in SSE 1 mph 8 mph 79% 0.00 in 0 W/m2
19:10 43.9 °F 37.5 °F 30.19 in SSE 5 mph 7 mph 78% 0.00 in 0 W/m2
19:20 43.7 °F 37.3 °F 30.19 in South 3 mph 7 mph 78% 0.00 in 0 W/m2
19:30 43.5 °F 37.4 °F 30.19 in South 2 mph 7 mph 79% 0.00 in 0 W/m2
19:40 43.3 °F 37.3 °F 30.19 in SSE 5 mph 7 mph 79% 0.00 in 0 W/m2
19:50 43.2 °F 37.1 °F 30.19 in SSW 1 mph 6 mph 79% 0.00 in 0 W/m2
20:00 43.6 °F 37.5 °F 30.19 in SE 5 mph 9 mph 79% 0.00 in 0 W/m2
20:10 43.7 °F 37.6 °F 30.19 in SE 3 mph 8 mph 79% 0.00 in 0 W/m2
20:20 43.2 °F 37.1 °F 30.19 in SE 1 mph 10 mph 79% 0.00 in 0 W/m2
20:30 42.6 °F 36.9 °F 30.19 in SSE 1 mph 5 mph 80% 0.00 in 0 W/m2
20:40 42.2 °F 36.8 °F 30.19 in ESE 3 mph 6 mph 81% 0.00 in 0 W/m2
20:50 42.1 °F 36.7 °F 30.19 in SSE 2 mph 12 mph 81% 0.00 in 0 W/m2
21:00 42.6 °F 37.2 °F 30.19 in SE 6 mph 9 mph 81% 0.00 in 0 W/m2
21:10 43 °F 37.2 °F 30.19 in SE 3 mph 11 mph 80% 0.00 in 0 W/m2
21:20 43 °F 37.2 °F 30.19 in SE 2 mph 8 mph 80% 0.00 in 0 W/m2
21:30 43.2 °F 37.4 °F 30.19 in SE 5 mph 8 mph 80% 0.00 in 0 W/m2
21:40 43.2 °F 37.4 °F 30.19 in SE 3 mph 8 mph 80% 0.00 in 0 W/m2
21:50 43 °F 37.2 °F 30.19 in SSE 3 mph 7 mph 80% 0.00 in 0 W/m2
22:00 42.8 °F 37.1 °F 30.19 in SSE 2 mph 7 mph 80% 0.00 in 0 W/m2
22:10 42.8 °F 37.1 °F 30.19 in SSE 2 mph 8 mph 80% 0.00 in 0 W/m2
22:20 42.8 °F 37.1 °F 30.19 in SSE 3 mph 8 mph 80% 0.00 in 0 W/m2
22:30 42.6 °F 36.9 °F 30.19 in SSE 1 mph 6 mph 80% 0.00 in 0 W/m2
22:40 42.4 °F 37 °F 30.19 in South 3 mph 7 mph 81% 0.00 in 0 W/m2
22:50 42.1 °F 36.7 °F 30.19 in South 1 mph 8 mph 81% 0.00 in 0 W/m2
23:00 41.2 °F 36.1 °F 30.19 in SSW 1 mph 6 mph 82% 0.00 in 0 W/m2
23:10 40.8 °F 36.1 °F 30.19 in South 2 mph 7 mph 83% 0.00 in 0 W/m2
23:20 40.1 °F 35.7 °F 30.19 in South 1 mph 5 mph 84% 0.00 in 0 W/m2
23:30 39.3 °F 34.9 °F 30.19 in WSW 2 mph 5 mph 84% 0.00 in 0 W/m2
23:40 39 °F 35.1 °F 30.18 in SW 3 mph 7 mph 86% 0.00 in 0 W/m2
23:50 38.8 °F 35 °F 30.18 in South 2 mph 5 mph 86% 0.00 in 0 W/m2
Knjazevac, Serbia
Compliments of Weather Underground - 2 mb